sensor_id;sensor_type;location;lat;lon;timestamp;P1;durP1;ratioP1;P2;durP2;ratioP2
10281;SDS011;5186;59.472;18.048;2022-08-21T00:01:20;3.23;;;1.70;;
10281;SDS011;5186;59.472;18.048;2022-08-21T00:03:49;3.40;;;1.93;;
10281;SDS011;5186;59.472;18.048;2022-08-21T00:06:15;4.87;;;1.80;;
10281;SDS011;5186;59.472;18.048;2022-08-21T00:08:41;4.77;;;1.70;;
10281;SDS011;5186;59.472;18.048;2022-08-21T00:11:07;2.97;;;1.93;;
10281;SDS011;5186;59.472;18.048;2022-08-21T00:13:33;6.03;;;1.60;;
10281;SDS011;5186;59.472;18.048;2022-08-21T00:15:59;5.50;;;1.97;;
10281;SDS011;5186;59.472;18.048;2022-08-21T00:18:25;4.23;;;2.30;;
10281;SDS011;5186;59.472;18.048;2022-08-21T00:20:51;4.60;;;1.70;;
10281;SDS011;5186;59.472;18.048;2022-08-21T00:23:17;5.63;;;1.90;;
10281;SDS011;5186;59.472;18.048;2022-08-21T00:25:43;6.10;;;1.97;;
10281;SDS011;5186;59.472;18.048;2022-08-21T00:28:09;6.40;;;1.80;;
10281;SDS011;5186;59.472;18.048;2022-08-21T00:30:36;3.53;;;1.77;;
10281;SDS011;5186;59.472;18.048;2022-08-21T00:33:02;7.17;;;1.90;;
10281;SDS011;5186;59.472;18.048;2022-08-21T00:35:33;5.17;;;2.00;;
10281;SDS011;5186;59.472;18.048;2022-08-21T00:38:02;4.57;;;2.10;;
10281;SDS011;5186;59.472;18.048;2022-08-21T00:40:31;2.70;;;1.70;;
10281;SDS011;5186;59.472;18.048;2022-08-21T00:43:00;5.33;;;2.10;;
10281;SDS011;5186;59.472;18.048;2022-08-21T00:45:28;4.13;;;1.70;;
10281;SDS011;5186;59.472;18.048;2022-08-21T00:47:55;2.80;;;1.50;;
10281;SDS011;5186;59.472;18.048;2022-08-21T00:50:22;4.13;;;1.90;;
10281;SDS011;5186;59.472;18.048;2022-08-21T00:52:50;3.70;;;1.57;;
10281;SDS011;5186;59.472;18.048;2022-08-21T00:55:17;3.37;;;1.93;;
10281;SDS011;5186;59.472;18.048;2022-08-21T00:57:45;5.47;;;1.67;;
10281;SDS011;5186;59.472;18.048;2022-08-21T01:00:15;3.10;;;1.60;;
10281;SDS011;5186;59.472;18.048;2022-08-21T01:02:43;3.07;;;1.60;;
10281;SDS011;5186;59.472;18.048;2022-08-21T01:05:10;6.17;;;2.07;;
10281;SDS011;5186;59.472;18.048;2022-08-21T01:07:36;3.47;;;1.60;;
10281;SDS011;5186;59.472;18.048;2022-08-21T01:10:03;2.43;;;1.60;;
10281;SDS011;5186;59.472;18.048;2022-08-21T01:12:30;2.90;;;1.50;;
10281;SDS011;5186;59.472;18.048;2022-08-21T01:14:56;3.10;;;1.50;;
10281;SDS011;5186;59.472;18.048;2022-08-21T01:17:23;2.23;;;1.70;;
10281;SDS011;5186;59.472;18.048;2022-08-21T01:19:51;3.13;;;1.43;;
10281;SDS011;5186;59.472;18.048;2022-08-21T01:22:17;6.87;;;1.70;;
10281;SDS011;5186;59.472;18.048;2022-08-21T01:24:44;2.83;;;1.70;;
10281;SDS011;5186;59.472;18.048;2022-08-21T01:27:10;1.93;;;1.57;;
10281;SDS011;5186;59.472;18.048;2022-08-21T01:29:36;2.80;;;1.60;;
10281;SDS011;5186;59.472;18.048;2022-08-21T01:32:11;6.87;;;1.70;;
10281;SDS011;5186;59.472;18.048;2022-08-21T01:34:39;4.93;;;1.60;;
10281;SDS011;5186;59.472;18.048;2022-08-21T01:37:07;5.67;;;1.80;;
10281;SDS011;5186;59.472;18.048;2022-08-21T01:39:33;3.37;;;1.50;;
10281;SDS011;5186;59.472;18.048;2022-08-21T01:41:59;3.30;;;1.67;;
10281;SDS011;5186;59.472;18.048;2022-08-21T01:44:25;4.43;;;1.90;;
10281;SDS011;5186;59.472;18.048;2022-08-21T01:46:52;1.93;;;1.43;;
10281;SDS011;5186;59.472;18.048;2022-08-21T01:49:18;3.43;;;1.77;;
10281;SDS011;5186;59.472;18.048;2022-08-21T01:51:44;1.53;;;1.40;;
10281;SDS011;5186;59.472;18.048;2022-08-21T01:54:10;3.47;;;1.60;;
10281;SDS011;5186;59.472;18.048;2022-08-21T01:56:39;4.00;;;1.93;;
10281;SDS011;5186;59.472;18.048;2022-08-21T01:59:07;4.27;;;1.97;;
10281;SDS011;5186;59.472;18.048;2022-08-21T02:01:33;3.37;;;1.80;;
10281;SDS011;5186;59.472;18.048;2022-08-21T02:03:59;2.90;;;1.63;;
10281;SDS011;5186;59.472;18.048;2022-08-21T02:06:25;3.03;;;2.10;;
10281;SDS011;5186;59.472;18.048;2022-08-21T02:08:51;5.50;;;1.90;;
10281;SDS011;5186;59.472;18.048;2022-08-21T02:11:17;7.13;;;1.83;;
10281;SDS011;5186;59.472;18.048;2022-08-21T02:13:43;4.80;;;1.90;;
10281;SDS011;5186;59.472;18.048;2022-08-21T02:16:08;4.40;;;1.77;;
10281;SDS011;5186;59.472;18.048;2022-08-21T02:18:34;3.83;;;1.97;;
10281;SDS011;5186;59.472;18.048;2022-08-21T02:21:00;4.67;;;2.00;;
10281;SDS011;5186;59.472;18.048;2022-08-21T02:23:27;5.80;;;1.90;;
10281;SDS011;5186;59.472;18.048;2022-08-21T02:26:02;3.87;;;1.87;;
10281;SDS011;5186;59.472;18.048;2022-08-21T02:28:29;4.53;;;2.10;;
10281;SDS011;5186;59.472;18.048;2022-08-21T02:30:55;3.33;;;1.70;;
10281;SDS011;5186;59.472;18.048;2022-08-21T02:33:21;3.00;;;1.80;;
10281;SDS011;5186;59.472;18.048;2022-08-21T02:35:48;3.47;;;1.63;;
10281;SDS011;5186;59.472;18.048;2022-08-21T02:38:16;3.63;;;1.87;;
10281;SDS011;5186;59.472;18.048;2022-08-21T02:40:44;2.20;;;1.47;;
10281;SDS011;5186;59.472;18.048;2022-08-21T02:43:12;1.80;;;1.70;;
10281;SDS011;5186;59.472;18.048;2022-08-21T02:45:40;2.07;;;1.50;;
10281;SDS011;5186;59.472;18.048;2022-08-21T02:48:09;3.27;;;1.87;;
10281;SDS011;5186;59.472;18.048;2022-08-21T02:50:38;3.33;;;1.90;;
10281;SDS011;5186;59.472;18.048;2022-08-21T02:53:13;5.97;;;1.93;;
10281;SDS011;5186;59.472;18.048;2022-08-21T02:55:41;5.60;;;1.87;;
10281;SDS011;5186;59.472;18.048;2022-08-21T02:58:12;4.47;;;1.80;;
10281;SDS011;5186;59.472;18.048;2022-08-21T03:00:40;4.27;;;1.83;;
10281;SDS011;5186;59.472;18.048;2022-08-21T03:03:06;3.67;;;1.80;;
10281;SDS011;5186;59.472;18.048;2022-08-21T03:05:33;2.53;;;1.60;;
10281;SDS011;5186;59.472;18.048;2022-08-21T03:08:01;3.17;;;1.60;;
10281;SDS011;5186;59.472;18.048;2022-08-21T03:10:28;5.03;;;1.90;;
10281;SDS011;5186;59.472;18.048;2022-08-21T03:12:55;3.40;;;1.90;;
10281;SDS011;5186;59.472;18.048;2022-08-21T03:15:22;5.57;;;2.30;;
10281;SDS011;5186;59.472;18.048;2022-08-21T03:17:48;3.80;;;2.43;;
10281;SDS011;5186;59.472;18.048;2022-08-21T03:20:16;4.83;;;1.93;;
10281;SDS011;5186;59.472;18.048;2022-08-21T03:22:47;2.90;;;1.70;;
10281;SDS011;5186;59.472;18.048;2022-08-21T03:25:13;3.47;;;1.70;;
10281;SDS011;5186;59.472;18.048;2022-08-21T03:27:39;2.87;;;1.83;;
10281;SDS011;5186;59.472;18.048;2022-08-21T03:30:05;3.10;;;1.80;;
10281;SDS011;5186;59.472;18.048;2022-08-21T03:32:32;2.20;;;1.80;;
10281;SDS011;5186;59.472;18.048;2022-08-21T03:34:58;4.70;;;2.00;;
10281;SDS011;5186;59.472;18.048;2022-08-21T03:37:25;3.03;;;2.13;;
10281;SDS011;5186;59.472;18.048;2022-08-21T03:39:50;3.20;;;1.73;;
10281;SDS011;5186;59.472;18.048;2022-08-21T03:42:16;5.33;;;2.10;;
10281;SDS011;5186;59.472;18.048;2022-08-21T03:44:42;3.53;;;2.07;;
10281;SDS011;5186;59.472;18.048;2022-08-21T03:47:07;5.07;;;2.10;;
10281;SDS011;5186;59.472;18.048;2022-08-21T03:49:33;3.23;;;2.13;;
10281;SDS011;5186;59.472;18.048;2022-08-21T03:51:59;6.13;;;2.10;;
10281;SDS011;5186;59.472;18.048;2022-08-21T03:54:25;4.10;;;2.13;;
10281;SDS011;5186;59.472;18.048;2022-08-21T03:56:51;4.77;;;2.03;;
10281;SDS011;5186;59.472;18.048;2022-08-21T03:59:17;3.53;;;2.13;;
10281;SDS011;5186;59.472;18.048;2022-08-21T04:01:53;3.80;;;1.90;;
10281;SDS011;5186;59.472;18.048;2022-08-21T04:04:20;2.27;;;2.07;;
10281;SDS011;5186;59.472;18.048;2022-08-21T04:06:46;3.00;;;2.00;;
10281;SDS011;5186;59.472;18.048;2022-08-21T04:09:12;2.73;;;2.03;;
10281;SDS011;5186;59.472;18.048;2022-08-21T04:11:37;5.23;;;2.23;;
10281;SDS011;5186;59.472;18.048;2022-08-21T04:14:03;4.37;;;1.90;;
10281;SDS011;5186;59.472;18.048;2022-08-21T04:16:29;5.53;;;2.30;;
10281;SDS011;5186;59.472;18.048;2022-08-21T04:18:55;4.93;;;2.00;;
10281;SDS011;5186;59.472;18.048;2022-08-21T04:21:21;4.73;;;2.40;;
10281;SDS011;5186;59.472;18.048;2022-08-21T04:23:48;3.27;;;2.10;;
10281;SDS011;5186;59.472;18.048;2022-08-21T04:26:13;4.57;;;2.47;;
10281;SDS011;5186;59.472;18.048;2022-08-21T04:28:39;4.40;;;2.20;;
10281;SDS011;5186;59.472;18.048;2022-08-21T04:31:04;2.77;;;2.13;;
10281;SDS011;5186;59.472;18.048;2022-08-21T04:33:30;3.40;;;2.37;;
10281;SDS011;5186;59.472;18.048;2022-08-21T04:35:56;5.03;;;2.30;;
10281;SDS011;5186;59.472;18.048;2022-08-21T04:38:21;5.20;;;2.60;;
10281;SDS011;5186;59.472;18.048;2022-08-21T04:40:47;6.50;;;2.23;;
10281;SDS011;5186;59.472;18.048;2022-08-21T04:43:13;2.90;;;2.20;;
10281;SDS011;5186;59.472;18.048;2022-08-21T04:45:40;3.67;;;2.30;;
10281;SDS011;5186;59.472;18.048;2022-08-21T04:48:08;4.17;;;2.37;;
10281;SDS011;5186;59.472;18.048;2022-08-21T04:50:56;4.90;;;2.30;;
10281;SDS011;5186;59.472;18.048;2022-08-21T04:55:53;5.33;;;2.00;;
10281;SDS011;5186;59.472;18.048;2022-08-21T04:58:21;5.27;;;2.20;;
10281;SDS011;5186;59.472;18.048;2022-08-21T05:00:51;4.23;;;2.30;;
10281;SDS011;5186;59.472;18.048;2022-08-21T05:03:19;4.57;;;2.33;;
10281;SDS011;5186;59.472;18.048;2022-08-21T05:05:46;4.63;;;2.50;;
10281;SDS011;5186;59.472;18.048;2022-08-21T05:08:12;4.67;;;2.60;;
10281;SDS011;5186;59.472;18.048;2022-08-21T05:10:42;3.77;;;2.37;;
10281;SDS011;5186;59.472;18.048;2022-08-21T05:13:08;3.87;;;2.50;;
10281;SDS011;5186;59.472;18.048;2022-08-21T05:15:35;5.03;;;2.10;;
10281;SDS011;5186;59.472;18.048;2022-08-21T05:18:01;4.93;;;2.40;;
10281;SDS011;5186;59.472;18.048;2022-08-21T05:20:27;6.97;;;2.40;;
10281;SDS011;5186;59.472;18.048;2022-08-21T05:22:53;5.07;;;2.60;;
10281;SDS011;5186;59.472;18.048;2022-08-21T05:25:18;3.90;;;2.40;;
10281;SDS011;5186;59.472;18.048;2022-08-21T05:27:44;4.93;;;2.43;;
10281;SDS011;5186;59.472;18.048;2022-08-21T05:30:10;8.10;;;2.73;;
10281;SDS011;5186;59.472;18.048;2022-08-21T05:32:36;3.30;;;2.47;;
10281;SDS011;5186;59.472;18.048;2022-08-21T05:35:03;6.10;;;2.63;;
10281;SDS011;5186;59.472;18.048;2022-08-21T05:37:30;4.93;;;2.70;;
10281;SDS011;5186;59.472;18.048;2022-08-21T05:39:56;3.57;;;2.33;;
10281;SDS011;5186;59.472;18.048;2022-08-21T05:42:22;5.10;;;2.60;;
10281;SDS011;5186;59.472;18.048;2022-08-21T05:44:48;5.63;;;2.40;;
10281;SDS011;5186;59.472;18.048;2022-08-21T05:47:13;4.03;;;2.40;;
10281;SDS011;5186;59.472;18.048;2022-08-21T05:49:39;6.47;;;2.70;;
10281;SDS011;5186;59.472;18.048;2022-08-21T05:52:05;9.17;;;2.80;;
10281;SDS011;5186;59.472;18.048;2022-08-21T05:54:31;5.07;;;2.40;;
10281;SDS011;5186;59.472;18.048;2022-08-21T05:56:56;6.40;;;2.67;;
10281;SDS011;5186;59.472;18.048;2022-08-21T05:59:22;8.17;;;2.63;;
10281;SDS011;5186;59.472;18.048;2022-08-21T06:01:48;8.13;;;2.80;;
10281;SDS011;5186;59.472;18.048;2022-08-21T06:04:14;6.00;;;2.87;;
10281;SDS011;5186;59.472;18.048;2022-08-21T06:06:39;4.57;;;2.40;;
10281;SDS011;5186;59.472;18.048;2022-08-21T06:09:05;4.83;;;2.50;;
10281;SDS011;5186;59.472;18.048;2022-08-21T06:11:31;5.60;;;2.77;;
10281;SDS011;5186;59.472;18.048;2022-08-21T06:13:58;6.77;;;2.27;;
10281;SDS011;5186;59.472;18.048;2022-08-21T06:16:24;7.10;;;2.53;;
10281;SDS011;5186;59.472;18.048;2022-08-21T06:18:50;5.40;;;2.87;;
10281;SDS011;5186;59.472;18.048;2022-08-21T06:21:16;3.63;;;2.30;;
10281;SDS011;5186;59.472;18.048;2022-08-21T06:23:41;9.57;;;2.90;;
10281;SDS011;5186;59.472;18.048;2022-08-21T06:26:08;9.47;;;2.43;;
10281;SDS011;5186;59.472;18.048;2022-08-21T06:28:35;8.33;;;2.40;;
10281;SDS011;5186;59.472;18.048;2022-08-21T06:31:09;4.43;;;2.00;;
10281;SDS011;5186;59.472;18.048;2022-08-21T06:33:39;7.40;;;2.33;;
10281;SDS011;5186;59.472;18.048;2022-08-21T06:36:05;5.57;;;2.07;;
10281;SDS011;5186;59.472;18.048;2022-08-21T06:38:31;7.97;;;2.50;;
10281;SDS011;5186;59.472;18.048;2022-08-21T06:40:57;6.23;;;2.40;;
10281;SDS011;5186;59.472;18.048;2022-08-21T06:43:22;7.13;;;2.23;;
10281;SDS011;5186;59.472;18.048;2022-08-21T06:45:48;5.20;;;2.10;;
10281;SDS011;5186;59.472;18.048;2022-08-21T06:48:14;5.67;;;1.97;;
10281;SDS011;5186;59.472;18.048;2022-08-21T06:50:39;7.13;;;1.90;;
10281;SDS011;5186;59.472;18.048;2022-08-21T06:53:07;8.20;;;2.50;;
10281;SDS011;5186;59.472;18.048;2022-08-21T06:55:34;5.93;;;2.17;;
10281;SDS011;5186;59.472;18.048;2022-08-21T06:58:01;6.77;;;2.07;;
10281;SDS011;5186;59.472;18.048;2022-08-21T07:00:27;6.10;;;2.43;;
10281;SDS011;5186;59.472;18.048;2022-08-21T07:02:53;8.03;;;2.57;;
10281;SDS011;5186;59.472;18.048;2022-08-21T07:05:19;8.97;;;2.40;;
10281;SDS011;5186;59.472;18.048;2022-08-21T07:07:45;7.57;;;1.90;;
10281;SDS011;5186;59.472;18.048;2022-08-21T07:10:11;9.10;;;2.33;;
10281;SDS011;5186;59.472;18.048;2022-08-21T07:12:37;9.37;;;2.17;;
10281;SDS011;5186;59.472;18.048;2022-08-21T07:15:03;6.20;;;2.00;;
10281;SDS011;5186;59.472;18.048;2022-08-21T07:17:29;9.83;;;2.30;;
10281;SDS011;5186;59.472;18.048;2022-08-21T07:19:55;7.67;;;2.13;;
10281;SDS011;5186;59.472;18.048;2022-08-21T07:22:22;7.30;;;2.17;;
10281;SDS011;5186;59.472;18.048;2022-08-21T07:24:47;6.90;;;2.10;;
10281;SDS011;5186;59.472;18.048;2022-08-21T07:27:13;8.00;;;2.00;;
10281;SDS011;5186;59.472;18.048;2022-08-21T07:29:38;5.73;;;2.20;;
10281;SDS011;5186;59.472;18.048;2022-08-21T07:32:04;6.77;;;2.30;;
10281;SDS011;5186;59.472;18.048;2022-08-21T07:34:30;17.23;;;2.83;;
10281;SDS011;5186;59.472;18.048;2022-08-21T07:36:56;6.77;;;1.93;;
10281;SDS011;5186;59.472;18.048;2022-08-21T07:39:22;8.73;;;2.00;;
10281;SDS011;5186;59.472;18.048;2022-08-21T07:41:48;12.17;;;2.53;;
10281;SDS011;5186;59.472;18.048;2022-08-21T07:44:13;6.33;;;2.10;;
10281;SDS011;5186;59.472;18.048;2022-08-21T07:46:39;8.87;;;2.60;;
10281;SDS011;5186;59.472;18.048;2022-08-21T07:49:04;8.33;;;2.13;;
10281;SDS011;5186;59.472;18.048;2022-08-21T07:51:30;8.80;;;2.20;;
10281;SDS011;5186;59.472;18.048;2022-08-21T07:53:58;7.20;;;1.80;;
10281;SDS011;5186;59.472;18.048;2022-08-21T07:56:25;5.80;;;2.27;;
10281;SDS011;5186;59.472;18.048;2022-08-21T07:58:51;8.80;;;1.87;;
10281;SDS011;5186;59.472;18.048;2022-08-21T08:01:17;7.90;;;1.83;;
10281;SDS011;5186;59.472;18.048;2022-08-21T08:03:43;10.27;;;2.73;;
10281;SDS011;5186;59.472;18.048;2022-08-21T08:06:09;7.23;;;2.30;;
10281;SDS011;5186;59.472;18.048;2022-08-21T08:08:37;4.97;;;1.77;;
10281;SDS011;5186;59.472;18.048;2022-08-21T08:11:04;5.63;;;2.13;;
10281;SDS011;5186;59.472;18.048;2022-08-21T08:13:30;7.30;;;2.00;;
10281;SDS011;5186;59.472;18.048;2022-08-21T08:15:55;7.37;;;1.90;;
10281;SDS011;5186;59.472;18.048;2022-08-21T08:18:21;7.80;;;2.20;;
10281;SDS011;5186;59.472;18.048;2022-08-21T08:20:47;5.00;;;1.83;;
10281;SDS011;5186;59.472;18.048;2022-08-21T08:23:13;6.77;;;1.93;;
10281;SDS011;5186;59.472;18.048;2022-08-21T08:25:40;5.23;;;2.00;;
10281;SDS011;5186;59.472;18.048;2022-08-21T08:28:06;4.67;;;1.90;;
10281;SDS011;5186;59.472;18.048;2022-08-21T08:30:32;9.00;;;2.40;;
10281;SDS011;5186;59.472;18.048;2022-08-21T08:32:58;6.13;;;2.03;;
10281;SDS011;5186;59.472;18.048;2022-08-21T08:35:24;7.20;;;1.97;;
10281;SDS011;5186;59.472;18.048;2022-08-21T08:37:51;6.03;;;1.80;;
10281;SDS011;5186;59.472;18.048;2022-08-21T08:40:19;4.03;;;1.70;;
10281;SDS011;5186;59.472;18.048;2022-08-21T08:42:48;6.77;;;1.90;;
10281;SDS011;5186;59.472;18.048;2022-08-21T08:45:16;6.43;;;1.73;;
10281;SDS011;5186;59.472;18.048;2022-08-21T08:47:48;8.87;;;2.07;;
10281;SDS011;5186;59.472;18.048;2022-08-21T08:50:25;6.03;;;1.60;;
10281;SDS011;5186;59.472;18.048;2022-08-21T08:53:04;6.23;;;1.67;;
10281;SDS011;5186;59.472;18.048;2022-08-21T08:55:35;4.20;;;1.50;;
10281;SDS011;5186;59.472;18.048;2022-08-21T08:58:03;5.17;;;1.97;;
10281;SDS011;5186;59.472;18.048;2022-08-21T09:00:30;6.50;;;1.57;;
10281;SDS011;5186;59.472;18.048;2022-08-21T09:02:57;4.17;;;1.87;;
10281;SDS011;5186;59.472;18.048;2022-08-21T09:10:38;5.70;;;1.83;;
10281;SDS011;5186;59.472;18.048;2022-08-21T09:16:01;5.33;;;1.67;;
10281;SDS011;5186;59.472;18.048;2022-08-21T09:21:28;5.77;;;1.90;;
10281;SDS011;5186;59.472;18.048;2022-08-21T09:27:17;4.53;;;1.53;;
10281;SDS011;5186;59.472;18.048;2022-08-21T09:29:46;5.43;;;1.80;;
10281;SDS011;5186;59.472;18.048;2022-08-21T09:37:54;5.90;;;1.53;;
10281;SDS011;5186;59.472;18.048;2022-08-21T09:40:36;6.47;;;1.50;;
10281;SDS011;5186;59.472;18.048;2022-08-21T09:43:20;5.80;;;1.67;;
10281;SDS011;5186;59.472;18.048;2022-08-21T09:46:00;4.70;;;1.33;;
10281;SDS011;5186;59.472;18.048;2022-08-21T09:48:43;5.40;;;1.90;;
10281;SDS011;5186;59.472;18.048;2022-08-21T09:51:13;4.93;;;1.57;;
10281;SDS011;5186;59.472;18.048;2022-08-21T09:53:45;6.93;;;1.60;;
10281;SDS011;5186;59.472;18.048;2022-08-21T09:56:30;5.60;;;1.43;;
10281;SDS011;5186;59.472;18.048;2022-08-21T09:59:26;5.27;;;1.50;;
10281;SDS011;5186;59.472;18.048;2022-08-21T10:01:56;3.90;;;1.67;;
10281;SDS011;5186;59.472;18.048;2022-08-21T10:04:48;3.93;;;1.60;;
10281;SDS011;5186;59.472;18.048;2022-08-21T10:07:14;5.97;;;1.43;;
10281;SDS011;5186;59.472;18.048;2022-08-21T10:09:40;3.80;;;1.43;;
10281;SDS011;5186;59.472;18.048;2022-08-21T10:17:23;5.27;;;1.30;;
10281;SDS011;5186;59.472;18.048;2022-08-21T10:20:20;4.03;;;1.43;;
10281;SDS011;5186;59.472;18.048;2022-08-21T10:23:00;4.73;;;1.40;;
10281;SDS011;5186;59.472;18.048;2022-08-21T10:25:37;4.47;;;1.60;;
10281;SDS011;5186;59.472;18.048;2022-08-21T10:28:31;3.10;;;1.20;;
10281;SDS011;5186;59.472;18.048;2022-08-21T10:31:17;2.87;;;1.20;;
10281;SDS011;5186;59.472;18.048;2022-08-21T10:39:33;3.60;;;1.07;;
10281;SDS011;5186;59.472;18.048;2022-08-21T10:44:45;7.13;;;3.13;;
10281;SDS011;5186;59.472;18.048;2022-08-21T10:49:54;4.83;;;1.70;;
10281;SDS011;5186;59.472;18.048;2022-08-21T10:55:20;4.67;;;1.73;;
10281;SDS011;5186;59.472;18.048;2022-08-21T10:57:59;4.30;;;1.60;;
10281;SDS011;5186;59.472;18.048;2022-08-21T11:00:43;4.20;;;1.57;;
10281;SDS011;5186;59.472;18.048;2022-08-21T11:03:18;3.37;;;1.17;;
10281;SDS011;5186;59.472;18.048;2022-08-21T11:08:43;1.63;;;0.80;;
10281;SDS011;5186;59.472;18.048;2022-08-21T11:11:20;3.13;;;1.23;;
10281;SDS011;5186;59.472;18.048;2022-08-21T11:25:08;3.43;;;1.10;;
10281;SDS011;5186;59.472;18.048;2022-08-21T11:28:05;4.20;;;1.37;;
10281;SDS011;5186;59.472;18.048;2022-08-21T11:36:27;4.10;;;1.27;;
10281;SDS011;5186;59.472;18.048;2022-08-21T11:39:35;4.43;;;1.30;;
10281;SDS011;5186;59.472;18.048;2022-08-21T11:42:36;3.70;;;1.37;;
10281;SDS011;5186;59.472;18.048;2022-08-21T11:45:14;3.07;;;1.40;;
10281;SDS011;5186;59.472;18.048;2022-08-21T11:50:37;3.50;;;1.30;;
10281;SDS011;5186;59.472;18.048;2022-08-21T11:53:09;2.90;;;1.20;;
10281;SDS011;5186;59.472;18.048;2022-08-21T11:55:45;4.90;;;1.77;;
10281;SDS011;5186;59.472;18.048;2022-08-21T11:58:22;3.00;;;1.37;;
10281;SDS011;5186;59.472;18.048;2022-08-21T12:00:58;2.67;;;1.03;;
10281;SDS011;5186;59.472;18.048;2022-08-21T12:03:31;3.20;;;1.10;;
10281;SDS011;5186;59.472;18.048;2022-08-21T12:06:04;5.37;;;1.40;;
10281;SDS011;5186;59.472;18.048;2022-08-21T12:08:36;2.77;;;1.20;;
10281;SDS011;5186;59.472;18.048;2022-08-21T12:13:52;4.77;;;1.23;;
10281;SDS011;5186;59.472;18.048;2022-08-21T12:16:39;4.33;;;1.67;;
10281;SDS011;5186;59.472;18.048;2022-08-21T12:19:08;3.07;;;1.30;;
10281;SDS011;5186;59.472;18.048;2022-08-21T12:30:33;4.13;;;1.37;;
10281;SDS011;5186;59.472;18.048;2022-08-21T12:33:05;2.23;;;1.10;;
10281;SDS011;5186;59.472;18.048;2022-08-21T12:35:43;3.30;;;1.37;;
10281;SDS011;5186;59.472;18.048;2022-08-21T12:46:02;2.60;;;1.23;;
10281;SDS011;5186;59.472;18.048;2022-08-21T12:48:39;5.57;;;1.27;;
10281;SDS011;5186;59.472;18.048;2022-08-21T12:51:12;1.27;;;0.80;;
10281;SDS011;5186;59.472;18.048;2022-08-21T12:56:21;2.87;;;1.10;;
10281;SDS011;5186;59.472;18.048;2022-08-21T12:58:53;3.50;;;1.10;;
10281;SDS011;5186;59.472;18.048;2022-08-21T13:01:31;1.67;;;0.73;;
10281;SDS011;5186;59.472;18.048;2022-08-21T13:04:15;3.33;;;0.97;;
10281;SDS011;5186;59.472;18.048;2022-08-21T13:06:48;2.10;;;1.07;;
10281;SDS011;5186;59.472;18.048;2022-08-21T13:09:17;2.43;;;0.80;;
10281;SDS011;5186;59.472;18.048;2022-08-21T13:11:47;1.60;;;0.97;;
10281;SDS011;5186;59.472;18.048;2022-08-21T13:14:24;2.30;;;1.07;;
10281;SDS011;5186;59.472;18.048;2022-08-21T13:16:54;2.33;;;0.90;;
10281;SDS011;5186;59.472;18.048;2022-08-21T13:19:21;2.80;;;1.10;;
10281;SDS011;5186;59.472;18.048;2022-08-21T13:21:48;3.10;;;0.90;;
10281;SDS011;5186;59.472;18.048;2022-08-21T13:24:16;3.03;;;0.90;;
10281;SDS011;5186;59.472;18.048;2022-08-21T13:26:57;0.97;;;0.63;;
10281;SDS011;5186;59.472;18.048;2022-08-21T13:29:27;2.37;;;0.90;;
10281;SDS011;5186;59.472;18.048;2022-08-21T13:31:56;2.83;;;0.90;;
10281;SDS011;5186;59.472;18.048;2022-08-21T13:34:25;1.33;;;0.60;;
10281;SDS011;5186;59.472;18.048;2022-08-21T13:37:00;1.73;;;0.80;;
10281;SDS011;5186;59.472;18.048;2022-08-21T13:39:29;1.93;;;0.80;;
10281;SDS011;5186;59.472;18.048;2022-08-21T13:41:56;2.10;;;0.70;;
10281;SDS011;5186;59.472;18.048;2022-08-21T13:47:00;2.57;;;0.90;;
10281;SDS011;5186;59.472;18.048;2022-08-21T13:49:30;2.70;;;0.73;;
10281;SDS011;5186;59.472;18.048;2022-08-21T13:52:19;3.83;;;1.07;;
10281;SDS011;5186;59.472;18.048;2022-08-21T13:54:57;1.03;;;0.60;;
10281;SDS011;5186;59.472;18.048;2022-08-21T13:59:53;3.17;;;1.00;;
10281;SDS011;5186;59.472;18.048;2022-08-21T14:02:47;2.57;;;0.80;;
10281;SDS011;5186;59.472;18.048;2022-08-21T14:05:19;1.73;;;0.87;;
10281;SDS011;5186;59.472;18.048;2022-08-21T14:07:59;6.43;;;1.40;;
10281;SDS011;5186;59.472;18.048;2022-08-21T14:10:36;1.63;;;0.70;;
10281;SDS011;5186;59.472;18.048;2022-08-21T14:13:14;1.70;;;0.80;;
10281;SDS011;5186;59.472;18.048;2022-08-21T14:15:56;1.63;;;0.67;;
10281;SDS011;5186;59.472;18.048;2022-08-21T14:18:23;2.37;;;0.70;;
10281;SDS011;5186;59.472;18.048;2022-08-21T14:20:50;3.60;;;0.80;;
10281;SDS011;5186;59.472;18.048;2022-08-21T14:23:26;3.60;;;0.80;;
10281;SDS011;5186;59.472;18.048;2022-08-21T14:25:52;1.57;;;0.70;;
10281;SDS011;5186;59.472;18.048;2022-08-21T14:28:24;2.77;;;0.77;;
10281;SDS011;5186;59.472;18.048;2022-08-21T14:30:51;2.07;;;0.90;;
10281;SDS011;5186;59.472;18.048;2022-08-21T14:33:22;2.23;;;0.53;;
10281;SDS011;5186;59.472;18.048;2022-08-21T14:35:53;2.67;;;0.80;;
10281;SDS011;5186;59.472;18.048;2022-08-21T14:38:20;2.10;;;0.83;;
10281;SDS011;5186;59.472;18.048;2022-08-21T14:40:51;2.20;;;0.73;;
10281;SDS011;5186;59.472;18.048;2022-08-21T14:43:19;2.67;;;1.07;;
10281;SDS011;5186;59.472;18.048;2022-08-21T14:45:46;1.73;;;0.80;;
10281;SDS011;5186;59.472;18.048;2022-08-21T14:48:12;1.23;;;0.70;;
10281;SDS011;5186;59.472;18.048;2022-08-21T14:50:38;1.97;;;0.77;;
10281;SDS011;5186;59.472;18.048;2022-08-21T14:53:04;1.93;;;0.80;;
10281;SDS011;5186;59.472;18.048;2022-08-21T14:55:31;2.80;;;0.97;;
10281;SDS011;5186;59.472;18.048;2022-08-21T14:58:20;2.50;;;0.90;;
10281;SDS011;5186;59.472;18.048;2022-08-21T15:00:47;1.60;;;0.87;;
10281;SDS011;5186;59.472;18.048;2022-08-21T15:03:14;2.80;;;0.90;;
10281;SDS011;5186;59.472;18.048;2022-08-21T15:05:40;2.77;;;0.70;;
10281;SDS011;5186;59.472;18.048;2022-08-21T15:08:05;3.27;;;1.07;;
10281;SDS011;5186;59.472;18.048;2022-08-21T15:10:31;2.13;;;0.90;;
10281;SDS011;5186;59.472;18.048;2022-08-21T15:12:58;1.77;;;1.10;;
10281;SDS011;5186;59.472;18.048;2022-08-21T15:15:25;1.07;;;0.90;;
10281;SDS011;5186;59.472;18.048;2022-08-21T15:17:50;5.43;;;2.77;;
10281;SDS011;5186;59.472;18.048;2022-08-21T15:20:16;2.63;;;1.00;;
10281;SDS011;5186;59.472;18.048;2022-08-21T15:22:41;5.43;;;1.70;;
10281;SDS011;5186;59.472;18.048;2022-08-21T15:25:07;2.67;;;1.17;;
10281;SDS011;5186;59.472;18.048;2022-08-21T15:27:33;1.53;;;0.73;;
10281;SDS011;5186;59.472;18.048;2022-08-21T15:29:59;2.10;;;0.70;;
10281;SDS011;5186;59.472;18.048;2022-08-21T15:32:26;2.37;;;1.00;;
10281;SDS011;5186;59.472;18.048;2022-08-21T15:34:55;1.07;;;0.80;;
10281;SDS011;5186;59.472;18.048;2022-08-21T15:37:22;1.57;;;0.70;;
10281;SDS011;5186;59.472;18.048;2022-08-21T15:39:49;4.67;;;0.80;;
10281;SDS011;5186;59.472;18.048;2022-08-21T15:42:15;1.87;;;0.90;;
10281;SDS011;5186;59.472;18.048;2022-08-21T15:44:42;2.37;;;0.90;;
10281;SDS011;5186;59.472;18.048;2022-08-21T15:47:14;2.80;;;1.13;;
10281;SDS011;5186;59.472;18.048;2022-08-21T15:49:42;0.87;;;0.63;;
10281;SDS011;5186;59.472;18.048;2022-08-21T15:52:10;1.90;;;0.90;;
10281;SDS011;5186;59.472;18.048;2022-08-21T15:54:37;0.93;;;0.73;;
10281;SDS011;5186;59.472;18.048;2022-08-21T15:57:02;3.30;;;0.80;;
10281;SDS011;5186;59.472;18.048;2022-08-21T15:59:28;1.63;;;0.90;;
10281;SDS011;5186;59.472;18.048;2022-08-21T16:02:04;3.10;;;0.90;;
10281;SDS011;5186;59.472;18.048;2022-08-21T16:04:31;0.97;;;0.70;;
10281;SDS011;5186;59.472;18.048;2022-08-21T16:06:57;1.47;;;0.80;;
10281;SDS011;5186;59.472;18.048;2022-08-21T16:09:22;1.33;;;0.73;;
10281;SDS011;5186;59.472;18.048;2022-08-21T16:11:48;2.93;;;0.80;;
10281;SDS011;5186;59.472;18.048;2022-08-21T16:14:14;2.80;;;0.80;;
10281;SDS011;5186;59.472;18.048;2022-08-21T16:16:41;1.57;;;0.83;;
10281;SDS011;5186;59.472;18.048;2022-08-21T16:19:08;2.10;;;0.80;;
10281;SDS011;5186;59.472;18.048;2022-08-21T16:21:35;3.53;;;0.87;;
10281;SDS011;5186;59.472;18.048;2022-08-21T16:24:01;1.33;;;0.73;;
10281;SDS011;5186;59.472;18.048;2022-08-21T16:26:27;1.50;;;0.90;;
10281;SDS011;5186;59.472;18.048;2022-08-21T16:28:54;1.97;;;0.80;;
10281;SDS011;5186;59.472;18.048;2022-08-21T16:31:22;1.67;;;0.90;;